Time;durP1;ratioP1;P1;durP2;ratioP2;P2;SDS_P1;SDS_P2;PMS_P1;PMS_P2;Temp;Humidity;BMP_temperature;BMP_pressure;BME280_temperature;BME280_humidity;BME280_pressure;Samples;Min_cycle;Max_cycle;Signal;HPM_P1;HPM_P2
2023/01/08 00:17:08;;;;;;;2.75;1.40;;;9.70;99.90;;;;;;6303707;22;20105;-93
2023/01/08 00:19:42;;;;;;;4.03;1.50;;;9.60;99.90;;;;;;6257061;22;20542;-92
2023/01/08 00:22:09;;;;;;;3.95;1.20;;;9.70;99.90;;;;;;6257035;22;20011;-94
2023/01/08 00:24:34;;;;;;;5.15;1.23;;;9.70;99.90;;;;;;6256318;22;20098;-93
2023/01/08 00:27:00;;;;;;;3.73;1.20;;;9.70;99.90;;;;;;6257173;22;20100;-96
2023/01/08 04:00:17;;;;;;;2.00;0.47;;;8.90;99.90;;;;;;6307904;22;20019;-94
2023/01/08 04:02:43;;;;;;;2.37;1.00;;;8.90;99.90;;;;;;6256172;22;20023;-93
2023/01/08 04:05:10;;;;;;;3.30;0.50;;;8.90;99.90;;;;;;6255887;22;20016;-92
2023/01/08 04:07:38;;;;;;;2.95;1.05;;;8.90;99.90;;;;;;6256073;22;20015;-91
2023/01/08 04:10:05;;;;;;;2.17;0.55;;;8.90;99.90;;;;;;6255724;22;20019;-93
2023/01/08 04:12:30;;;;;;;3.78;0.73;;;8.80;99.90;;;;;;6256230;22;20011;-91
2023/01/08 04:15:33;;;;;;;2.73;0.50;;;8.80;99.90;;;;;;6230390;22;20019;-93
2023/01/08 04:41:43;;;;;;;3.42;0.40;;;8.50;99.90;;;;;;6314058;22;20023;-93
2023/01/08 04:44:09;;;;;;;1.90;0.60;;;8.50;99.90;;;;;;6286408;22;20019;-92
2023/01/08 04:46:35;;;;;;;1.43;0.50;;;8.40;99.90;;;;;;6260660;22;20007;-92
2023/01/08 04:49:00;;;;;;;1.85;0.50;;;8.40;99.90;;;;;;6286406;22;20072;-95
2023/01/08 04:55:46;;;;;;;1.50;0.63;;;8.40;99.90;;;;;;6339946;22;20030;-94
2023/01/08 04:58:12;;;;;;;2.70;0.60;;;8.40;99.90;;;;;;6311985;22;20018;-94
2023/01/08 05:00:39;;;;;;;2.30;0.80;;;8.40;99.90;;;;;;6286464;22;20467;-95
2023/01/08 05:03:05;;;;;;;3.97;1.00;;;8.40;99.90;;;;;;6286188;22;20023;-95
2023/01/08 05:06:02;;;;;;;1.52;0.63;;;8.40;99.90;;;;;;6286271;22;20018;-96
2023/01/08 05:08:27;;;;;;;2.53;0.85;;;8.30;99.90;;;;;;6284842;22;20022;-96
2023/01/08 05:10:53;;;;;;;2.23;0.90;;;8.30;99.90;;;;;;6285992;22;20022;-95
2023/01/08 05:13:19;;;;;;;3.47;0.73;;;8.30;99.90;;;;;;6260814;22;20093;-95
2023/01/08 05:15:44;;;;;;;4.07;1.00;;;8.30;99.90;;;;;;6286590;22;20015;-96
2023/01/08 05:18:10;;;;;;;4.20;0.80;;;8.30;99.90;;;;;;6286089;22;20019;-95
2023/01/08 05:20:36;;;;;;;5.80;1.47;;;8.30;99.90;;;;;;6286477;22;20456;-96
2023/01/08 05:26:03;;;;;;;2.40;0.68;;;8.30;99.90;;;;;;6307534;22;20015;-95
2023/01/08 05:28:29;;;;;;;2.80;0.90;;;8.30;99.90;;;;;;6255562;22;20449;-96
2023/01/08 05:30:56;;;;;;;2.45;0.95;;;8.30;99.90;;;;;;6257240;22;20023;-96
2023/01/08 05:33:22;;;;;;;3.58;1.05;;;8.30;99.90;;;;;;6257403;22;20022;-96
2023/01/08 05:36:22;;;;;;;2.20;0.90;;;8.30;99.90;;;;;;6258144;22;20047;-96
2023/01/08 05:41:24;;;;;;;2.50;0.77;;;8.40;99.90;;;;;;6309658;22;20337;-94
2023/01/08 05:43:49;;;;;;;2.80;1.07;;;8.40;99.90;;;;;;6257559;22;20061;-93
2023/01/08 05:46:15;;;;;;;2.10;0.80;;;8.40;99.90;;;;;;6257531;22;20030;-93
2023/01/08 05:48:41;;;;;;;5.07;1.47;;;8.40;99.90;;;;;;6257363;22;20015;-92
2023/01/08 05:51:07;;;;;;;3.63;0.80;;;8.50;99.90;;;;;;6257353;22;20015;-93
2023/01/08 05:58:35;;;;;;;2.80;0.90;;;8.50;99.90;;;;;;6248246;22;19969;-93
2023/01/08 06:01:10;;;;;;;2.88;1.02;;;8.50;99.90;;;;;;6196810;23;20039;-92
2023/01/08 06:03:36;;;;;;;2.90;0.70;;;8.50;99.90;;;;;;6196858;23;20047;-93
2023/01/08 06:06:03;;;;;;;;;;;8.50;99.90;;;;;;6197185;23;20016;-92
2023/01/08 06:08:30;;;;;;;2.10;0.68;;;8.50;99.90;;;;;;6196444;23;19912;-91
2023/01/08 06:11:05;;;;;;;2.40;0.80;;;8.50;99.90;;;;;;6196681;23;20051;-91
2023/01/08 06:13:32;;;;;;;2.22;0.70;;;8.50;99.90;;;;;;6196258;23;20364;-92
2023/01/08 06:15:58;;;;;;;;;;;8.50;99.90;;;;;;6196901;23;20016;-91
2023/01/08 06:18:38;;;;;;;3.05;0.70;;;8.50;99.90;;;;;;6196055;23;19919;-92
2023/01/08 06:21:04;;;;;;;2.08;0.60;;;8.50;99.90;;;;;;6196337;23;20012;-92
2023/01/08 06:23:30;;;;;;;1.75;0.75;;;8.50;99.90;;;;;;6171567;23;20008;-93
2023/01/08 06:25:57;;;;;;;;;;;8.60;99.90;;;;;;6196821;23;20078;-93
2023/01/08 06:28:23;;;;;;;1.25;0.57;;;8.60;99.90;;;;;;6196403;23;19947;-92
2023/01/08 06:30:49;;;;;;;3.47;1.07;;;8.60;99.90;;;;;;6196335;23;20027;-92
2023/01/08 06:33:15;;;;;;;1.25;0.60;;;8.60;99.90;;;;;;6196087;23;20019;-93
2023/01/08 06:35:41;;;;;;;2.05;0.60;;;8.60;99.90;;;;;;6196346;23;20016;-93
2023/01/08 06:38:06;;;;;;;1.60;0.63;;;8.60;99.90;;;;;;6196351;23;20460;-93
2023/01/08 06:40:32;;;;;;;2.03;0.77;;;8.50;99.90;;;;;;6196596;23;20020;-92
2023/01/08 06:43:02;;;;;;;3.27;0.70;;;8.60;99.90;;;;;;6196319;23;20383;-93
2023/01/08 06:45:28;;;;;;;2.95;0.85;;;8.60;99.90;;;;;;6196151;23;20020;-95
2023/01/08 06:47:54;;;;;;;2.65;0.75;;;8.60;99.90;;;;;;6196410;23;20468;-95
2023/01/08 06:50:20;;;;;;;2.00;0.60;;;8.60;99.90;;;;;;6171582;23;20019;-93
2023/01/08 06:57:57;;;;;;;1.85;0.70;;;8.60;99.90;;;;;;6308995;22;20076;-93
2023/01/08 07:00:37;;;;;;;2.63;0.93;;;8.60;99.90;;;;;;6256767;22;20445;-93
2023/01/08 07:03:05;;;;;;;2.13;0.85;;;8.60;99.90;;;;;;6256545;22;20015;-90
2023/01/08 07:05:31;;;;;;;1.67;0.77;;;8.60;99.90;;;;;;6231454;22;20100;-92
2023/01/08 07:07:57;;;;;;;2.13;0.80;;;8.60;99.90;;;;;;6256852;22;20054;-93
2023/01/08 07:10:23;;;;;;;3.60;1.00;;;8.60;99.90;;;;;;6231985;22;20468;-93
2023/01/08 07:12:48;;;;;;;3.33;0.80;;;8.60;99.90;;;;;;6256482;22;20548;-92
2023/01/08 07:15:15;;;;;;;2.80;1.00;;;8.50;99.90;;;;;;6256906;22;20027;-92
2023/01/08 07:17:41;;;;;;;2.63;0.95;;;8.50;99.90;;;;;;6256575;22;20022;-92
2023/01/08 07:20:08;;;;;;;3.20;1.10;;;8.50;99.90;;;;;;6282264;22;20015;-92
2023/01/08 07:22:34;;;;;;;2.63;0.95;;;8.50;99.90;;;;;;6256807;22;20433;-93
2023/01/08 07:24:59;;;;;;;3.73;0.83;;;8.50;99.90;;;;;;6256545;22;20057;-92
2023/01/08 07:27:25;;;;;;;2.03;0.90;;;8.50;99.90;;;;;;6256625;22;20015;-92
2023/01/08 07:29:51;;;;;;;5.38;1.55;;;8.50;99.90;;;;;;6256516;22;20026;-91
2023/01/08 07:32:17;;;;;;;3.40;1.13;;;8.50;99.90;;;;;;6256675;22;20102;-93
2023/01/08 07:34:42;;;;;;;2.33;1.03;;;8.50;99.90;;;;;;6256528;22;20058;-93
2023/01/08 07:37:08;;;;;;;5.07;1.10;;;8.50;99.90;;;;;;6231126;22;20015;-92
2023/01/08 07:39:34;;;;;;;2.17;0.80;;;8.50;99.90;;;;;;6256370;22;20015;-93
2023/01/08 07:41:59;;;;;;;4.00;0.93;;;8.50;99.90;;;;;;6256225;22;20011;-94
2023/01/08 07:44:25;;;;;;;2.10;0.90;;;8.40;99.90;;;;;;6256191;22;20337;-95
2023/01/08 07:46:51;;;;;;;1.93;0.97;;;8.40;99.90;;;;;;6256362;22;20019;-92
2023/01/08 07:49:17;;;;;;;3.07;0.90;;;8.30;99.90;;;;;;6256053;22;20019;-94
2023/01/08 07:51:42;;;;;;;3.27;1.03;;;8.30;99.90;;;;;;6256131;22;20019;-93
2023/01/08 07:54:08;;;;;;;2.63;1.10;;;8.30;99.90;;;;;;6255891;22;20597;-94
2023/01/08 07:56:34;;;;;;;3.27;0.80;;;8.30;99.90;;;;;;6256019;22;20022;-93
2023/01/08 08:02:43;;;;;;;3.03;0.90;;;8.20;99.90;;;;;;6285223;22;20072;-93
2023/01/08 08:05:35;;;;;;;2.73;0.90;;;8.20;99.90;;;;;;6281584;22;20041;-93
2023/01/08 08:08:01;;;;;;;3.78;1.23;;;8.20;99.90;;;;;;6276587;22;20022;-93
2023/01/08 08:10:27;;;;;;;2.07;0.80;;;8.20;99.90;;;;;;6256052;22;20011;-93
2023/01/08 08:12:53;;;;;;;2.47;0.90;;;8.20;99.90;;;;;;6281488;22;20023;-94
2023/01/08 08:15:18;;;;;;;3.40;1.20;;;8.20;99.90;;;;;;6281007;22;20092;-93
2023/01/08 08:17:48;;;;;;;2.30;0.90;;;8.20;99.90;;;;;;6281586;22;20015;-93
2023/01/08 08:20:14;;;;;;;3.22;0.70;;;8.20;99.90;;;;;;6281557;22;20019;-93
2023/01/08 08:22:40;;;;;;;2.50;0.97;;;8.10;99.90;;;;;;6281275;22;20014;-93
2023/01/08 08:25:06;;;;;;;2.83;1.10;;;8.10;99.90;;;;;;6281651;22;20057;-93
2023/01/08 08:27:32;;;;;;;3.03;0.80;;;8.10;99.90;;;;;;6281282;22;20456;-92
2023/01/08 08:29:57;;;;;;;4.00;1.17;;;8.10;99.90;;;;;;6281499;22;20058;-91
2023/01/08 08:32:23;;;;;;;4.53;1.37;;;8.00;99.90;;;;;;6281484;22;20019;-93
2023/01/08 08:34:49;;;;;;;4.57;1.27;;;8.00;99.90;;;;;;6280451;22;20042;-93
2023/01/08 08:37:15;;;;;;;2.63;0.90;;;8.10;99.90;;;;;;6281494;22;20467;-92
2023/01/08 08:39:41;;;;;;;3.22;1.10;;;8.00;99.90;;;;;;6255875;22;20098;-94
2023/01/08 08:42:07;;;;;;;3.17;1.00;;;8.10;99.90;;;;;;6281514;22;20427;-94
2023/01/08 08:44:33;;;;;;;3.77;0.77;;;8.10;99.90;;;;;;6282179;22;20055;-94
2023/01/08 08:47:00;;;;;;;2.40;0.63;;;8.10;99.90;;;;;;6281461;22;20023;-93
2023/01/08 08:49:25;;;;;;;3.72;0.77;;;8.10;99.90;;;;;;6281289;22;20018;-91
2023/01/08 08:52:16;;;;;;;2.63;0.80;;;8.10;99.90;;;;;;6281465;22;20015;-92
2023/01/08 09:49:42;;;;;;;5.70;0.77;;;8.50;99.90;;;;;;6307069;22;20047;-93
2023/01/08 09:52:12;;;;;;;3.58;0.70;;;8.50;99.90;;;;;;6256386;22;20061;-92
2023/01/08 09:54:39;;;;;;;3.20;0.70;;;8.50;99.90;;;;;;6255605;22;20019;-94
2023/01/08 09:57:05;;;;;;;2.38;0.68;;;8.60;99.90;;;;;;6257078;22;20022;-92
2023/01/08 09:59:32;;;;;;;3.78;0.57;;;8.60;99.90;;;;;;6256558;22;20015;-96
2023/01/08 10:01:58;;;;;;;4.72;0.88;;;8.60;99.90;;;;;;6255749;22;20021;-94
2023/01/08 10:04:25;;;;;;;3.43;0.57;;;8.60;99.90;;;;;;6255715;22;20102;-93
2023/01/08 10:07:10;;;;;;;4.20;0.95;;;8.60;99.90;;;;;;6255730;22;20034;-95
2023/01/08 10:09:36;;;;;;;3.35;0.50;;;8.70;99.90;;;;;;6255662;22;20019;-94
2023/01/08 10:12:04;;;;;;;1.53;0.40;;;8.70;99.90;;;;;;6255674;22;20011;-91
2023/01/08 10:14:36;;;;;;;4.60;0.50;;;8.70;99.90;;;;;;6255887;22;20276;-95
2023/01/08 10:17:30;;;;;;;2.95;0.60;;;8.70;99.90;;;;;;6256995;22;20022;-93
2023/01/08 10:19:56;;;;;;;2.47;0.40;;;8.80;99.90;;;;;;6257630;22;20460;-94
2023/01/08 10:22:24;;;;;;;2.67;0.47;;;8.80;99.90;;;;;;6258139;22;20015;-91
2023/01/08 10:24:50;;;;;;;2.33;0.50;;;8.80;99.90;;;;;;6259254;22;20090;-91
2023/01/08 10:27:18;;;;;;;3.92;0.50;;;8.90;99.90;;;;;;6257142;22;20015;-92
2023/01/08 10:29:44;;;;;;;5.28;2.10;;;8.90;99.90;;;;;;6255824;22;20117;-92
2023/01/08 10:32:16;;;;;;;32.90;17.13;;;8.90;99.90;;;;;;6257666;22;20016;-94
2023/01/08 10:34:49;;;;;;;3.60;2.30;;;8.90;99.90;;;;;;6257341;22;20508;-94
2023/01/08 10:37:42;;;;;;;8.15;2.72;;;8.90;99.90;;;;;;6257086;22;20390;-93
2023/01/08 10:40:29;;;;;;;1.95;0.77;;;8.90;99.90;;;;;;6257592;22;20499;-95
2023/01/08 10:43:07;;;;;;;4.43;1.07;;;8.90;99.90;;;;;;6256766;22;20289;-92
2023/01/08 10:45:33;;;;;;;;;;;8.90;99.90;;;;;;6257591;22;20019;-91
2023/01/08 10:48:03;;;;;;;3.85;0.55;;;8.90;99.90;;;;;;6257052;22;19961;-92
2023/01/08 10:56:28;;;;;;;3.70;1.38;;;9.00;99.90;;;;;;6278507;22;20024;-91
2023/01/08 10:58:54;;;;;;;3.30;0.45;;;9.00;99.90;;;;;;6226517;22;20389;-91
2023/01/08 11:01:28;;;;;;;4.10;0.57;;;9.00;99.90;;;;;;6226304;22;20023;-90
2023/01/08 11:04:05;;;;;;;3.67;1.75;;;9.00;99.90;;;;;;6201527;22;20027;-91
2023/01/08 11:06:38;;;;;;;4.68;1.27;;;9.10;99.90;;;;;;6226451;22;20015;-91
2023/01/08 11:09:57;;;;;;;2.90;0.63;;;9.10;99.90;;;;;;6227460;22;20016;-91
2023/01/08 11:12:39;;;;;;;2.83;0.63;;;9.10;99.90;;;;;;6253484;22;20023;-92
2023/01/08 11:46:43;;;;;;;6.45;1.63;;;9.10;99.90;;;;;;6307738;22;20022;-93
2023/01/08 11:49:15;;;;;;;3.45;1.10;;;9.20;99.90;;;;;;6256612;22;20023;-92
2023/01/08 11:51:56;;;;;;;2.63;0.50;;;9.20;99.90;;;;;;6256121;22;20064;-92
2023/01/08 11:54:45;;;;;;;3.17;0.68;;;9.20;99.90;;;;;;6256428;22;20457;-96
2023/01/08 11:57:37;;;;;;;0.77;0.40;;;9.20;99.90;;;;;;6242943;22;20040;-92
2023/01/08 12:00:46;;;;;;;3.38;0.60;;;9.20;99.90;;;;;;6256796;22;20095;-91
2023/01/08 12:03:45;;;;;;;3.30;0.55;;;9.30;99.90;;;;;;6278939;22;20090;-92
2023/01/08 12:06:42;;;;;;;3.08;0.80;;;9.30;99.90;;;;;;6257022;22;20098;-93
2023/01/08 12:09:37;;;;;;;4.88;0.73;;;9.30;99.90;;;;;;6256601;22;20023;-93
2023/01/08 12:12:25;;;;;;;3.45;0.60;;;9.30;99.90;;;;;;6256078;22;20046;-94
2023/01/08 12:15:36;;;;;;;6.03;1.38;;;9.30;99.90;;;;;;6256801;22;20011;-90
2023/01/08 12:18:14;;;;;;;4.00;0.50;;;9.30;99.90;;;;;;6253170;22;20015;-91
2023/01/08 12:20:53;;;;;;;4.00;0.52;;;9.30;99.90;;;;;;6256474;22;20030;-93
2023/01/08 12:23:31;;;;;;;3.67;0.60;;;9.30;99.90;;;;;;6256298;22;20015;-92
2023/01/08 12:26:37;;;;;;;3.55;0.82;;;9.30;99.90;;;;;;6257220;22;20022;-95
2023/01/08 13:49:52;;;;;;;2.92;0.50;;;9.10;99.90;;;;;;6307259;22;20437;-92
2023/01/08 13:53:56;;;;;;;2.53;0.57;;;9.20;99.90;;;;;;6283915;22;20046;-91
2023/01/08 13:56:11;;;;;;;2.42;0.93;;;9.20;99.90;;;;;;6262123;22;20026;-91
2023/01/08 13:58:43;;;;;;;2.72;0.85;;;9.20;99.90;;;;;;6256646;22;20030;-92
2023/01/08 14:01:35;;;;;;;2.08;0.63;;;9.20;99.90;;;;;;6257115;22;20011;-91
2023/01/08 14:04:03;;;;;;;2.55;0.60;;;9.10;99.90;;;;;;6256993;22;20038;-94
2023/01/08 14:15:05;;;;;;;3.28;0.52;;;9.20;99.90;;;;;;6310104;22;20566;-92
2023/01/08 14:18:01;;;;;;;3.78;0.95;;;9.20;99.90;;;;;;6260800;22;20079;-93
2023/01/08 19:58:49;;;;;;;1.85;0.70;;;6.40;99.90;;;;;;6311546;22;20036;-91
2023/01/08 20:01:19;;;;;;;2.80;0.73;;;6.30;99.90;;;;;;6281274;22;20456;-91
2023/01/08 20:04:17;;;;;;;2.42;0.70;;;6.30;99.90;;;;;;6281112;22;20015;-91
2023/01/08 20:07:09;;;;;;;5.03;0.90;;;6.30;99.90;;;;;;6272552;22;20436;-91
2023/01/08 20:09:35;;;;;;;2.13;0.65;;;6.30;99.90;;;;;;6215151;22;20022;-89
2023/01/08 20:12:17;;;;;;;1.37;0.60;;;6.30;99.90;;;;;;6281287;22;20043;-91
2023/01/08 20:14:50;;;;;;;2.08;0.70;;;6.30;99.90;;;;;;6280799;22;20015;-90
2023/01/08 20:17:20;;;;;;;2.60;0.70;;;6.30;99.90;;;;;;6257301;22;20011;-93
2023/01/08 20:19:46;;;;;;;1.20;0.45;;;6.30;99.90;;;;;;6281057;22;20011;-88
2023/01/08 20:22:12;;;;;;;1.53;0.50;;;6.30;99.90;;;;;;6281246;22;20078;-91
2023/01/08 20:24:38;;;;;;;4.97;1.07;;;6.30;99.90;;;;;;6281365;22;20038;-94
2023/01/08 20:27:26;;;;;;;;;;;;;;;;;;;;;
2023/01/08 20:30:10;;;;;;;3.20;0.77;;;6.30;99.90;;;;;;6306656;22;20034;-93
2023/01/08 20:33:42;;;;;;;;;;;;;;;;;;;;;
2023/01/08 20:36:39;;;;;;;;;;;;;;;;;;;;;
2023/01/08 20:39:58;;;;;;;1.08;0.40;;;6.30;99.90;;;;;;6186446;23;20036;-93
2023/01/08 20:42:36;;;;;;;1.15;0.40;;;6.30;99.90;;;;;;6097907;23;20021;-94
2023/01/08 20:45:14;;;;;;;;;;;;;;;;;;;;;
2023/01/08 20:47:49;;;;;;;2.83;0.40;;;6.40;99.90;;;;;;6307617;22;20055;-92
2023/01/08 20:54:06;;;;;;;1.05;0.50;;;6.40;99.90;;;;;;6307639;22;20340;-94
2023/01/08 21:01:24;;;;;;;1.83;0.57;;;6.30;99.90;;;;;;6212468;23;20391;-92
2023/01/08 21:04:17;;;;;;;3.78;0.40;;;6.20;99.90;;;;;;6052521;23;20029;-93
2023/01/08 21:07:09;;;;;;;2.10;0.60;;;6.20;99.90;;;;;;6097217;23;20031;-94
2023/01/08 21:09:35;;;;;;;1.77;0.50;;;6.20;99.90;;;;;;6171169;22;20023;-90
2023/01/08 21:12:01;;;;;;;5.18;1.23;;;6.20;99.90;;;;;;6255065;22;20149;-92
2023/01/08 21:14:33;;;;;;;1.80;0.57;;;6.20;99.90;;;;;;6280650;22;20038;-94
2023/01/08 21:17:51;;;;;;;4.20;0.60;;;6.10;99.90;;;;;;6280791;22;20019;-94
2023/01/08 21:20:25;;;;;;;2.33;0.50;;;6.10;99.90;;;;;;6218815;23;20016;-93
2023/01/08 21:22:56;;;;;;;3.78;0.60;;;6.10;99.90;;;;;;6193663;23;20095;-92
2023/01/08 21:26:22;;;;;;;5.50;0.88;;;6.00;99.90;;;;;;6170305;23;20546;-92
2023/01/08 21:37:20;;;;;;;;;;;;;;;;;;;;;
2023/01/08 23:02:27;;;;;;;1.75;0.60;;;5.90;99.90;;;;;;6311017;22;20027;-92
2023/01/08 23:04:55;;;;;;;2.10;0.60;;;5.90;99.90;;;;;;6255936;22;20020;-93
2023/01/08 23:25:32;;;;;;;2.17;0.85;;;5.90;99.90;;;;;;6276940;22;20020;-94
2023/01/08 23:27:58;;;;;;;3.13;0.98;;;5.90;99.90;;;;;;6201134;22;20020;-88
2023/01/08 23:30:23;;;;;;;2.43;1.03;;;5.90;99.90;;;;;;6226788;22;20019;-93
2023/01/08 23:32:50;;;;;;;2.97;0.80;;;5.90;99.90;;;;;;6252777;22;20008;-89
2023/01/08 23:35:19;;;;;;;2.92;0.80;;;5.90;99.90;;;;;;6228856;22;20047;-95
2023/01/08 23:37:51;;;;;;;2.53;0.68;;;5.90;99.90;;;;;;6227913;22;20115;-96
2023/01/08 23:40:17;;;;;;;3.53;0.70;;;5.90;99.90;;;;;;6226691;22;20054;-95
2023/01/08 23:42:43;;;;;;;4.38;1.02;;;5.90;99.90;;;;;;6254005;22;20449;-94
2023/01/08 23:45:11;;;;;;;2.95;0.95;;;5.90;99.90;;;;;;6225983;22;20059;-94
2023/01/08 23:47:36;;;;;;;2.67;1.00;;;6.00;99.90;;;;;;6225799;22;20082;-95
2023/01/08 23:50:03;;;;;;;2.23;0.60;;;6.00;99.90;;;;;;6225679;22;20012;-93
2023/01/08 23:52:29;;;;;;;2.67;1.52;;;6.00;99.90;;;;;;6225834;22;20055;-93
2023/01/08 23:54:54;;;;;;;3.73;1.30;;;6.10;99.90;;;;;;6200599;22;20042;-89
2023/01/08 23:57:20;;;;;;;3.07;1.17;;;6.10;99.90;;;;;;6225841;22;20027;-96
2023/01/08 23:59:46;;;;;;;1.20;0.60;;;6.10;99.90;;;;;;6226600;22;20020;-95
